NJE017U EDDH-EGLF
Flight info
| Callsign | NJE017U |
|---|---|
| Flight time | 1h 13m |
| Altitude | 38000 |
| Route | WSN5G/33 WSN N125 ONTAZ DCT VALKO DCT ABNED L980 LAM L179 ICTAM Q63 CPT |
| Aircraft | CL60/M-SBDE1E2E3FGHIJ1J3J4J7P2RWXYZ/LB1D1 |
Departure
| Time | 2026-04-25 18:53 |
|---|---|
| Airport | Hamburg Helmut Schmidt Airport (EDDH) |
Arrival
| Time | 2026-04-25 20:07 |
|---|---|
| Airport | Farnborough Airport (EGLF) |
| Time | Latitude | Longitude | Altitude | Speed | Heading |
|---|---|---|---|---|---|
| 2026-04-25 18:08 | 53.62741 | 9.98896 | 61 ft | 0 kts | 242° |
| 2026-04-25 18:49 | 53.62738 | 9.98888 | 61 ft | 2 kts | 242° |
| 2026-04-25 18:50 | 53.62743 | 9.98843 | 61 ft | 5 kts | 318° |
| 2026-04-25 18:50 | 53.62788 | 9.98801 | 61 ft | 6 kts | 334° |
| 2026-04-25 18:50 | 53.62821 | 9.98820 | 61 ft | 5 kts | 48° |
| 2026-04-25 18:50 | 53.62855 | 9.98888 | 61 ft | 9 kts | 49° |
| 2026-04-25 18:51 | 53.62898 | 9.98975 | 61 ft | 9 kts | 50° |
| 2026-04-25 18:51 | 53.62913 | 9.99005 | 61 ft | 10 kts | 50° |
| 2026-04-25 18:51 | 53.63014 | 9.99209 | 61 ft | 14 kts | 47° |
| 2026-04-25 18:51 | 53.63072 | 9.99285 | 61 ft | 8 kts | 24° |
| 2026-04-25 18:52 | 53.63119 | 9.99309 | 61 ft | 4 kts | 13° |
| 2026-04-25 18:52 | 53.63146 | 9.99320 | 61 ft | 4 kts | 13° |
| 2026-04-25 18:52 | 53.63187 | 9.99336 | 61 ft | 7 kts | 12° |
| 2026-04-25 18:52 | 53.63251 | 9.99358 | 61 ft | 10 kts | 9° |
| 2026-04-25 18:53 | 53.63327 | 9.99347 | 61 ft | 10 kts | 338° |
| 2026-04-25 18:53 | 53.63407 | 9.99279 | 61 ft | 18 kts | 332° |
| 2026-04-25 18:53 | 53.63840 | 9.98905 | 61 ft | 124 kts | 332° |
| 2026-04-25 18:53 | 53.64777 | 9.98101 | 689 ft | 163 kts | 331° |
| 2026-04-25 18:54 | 53.66596 | 9.96572 | 3357 ft | 161 kts | 332° |
| 2026-04-25 18:54 | 53.67700 | 9.95623 | 3789 ft | 188 kts | 332° |
| 2026-04-25 18:54 | 53.68833 | 9.94652 | 4380 ft | 180 kts | 332° |
| 2026-04-25 18:55 | 53.69949 | 9.93695 | 5138 ft | 182 kts | 331° |
| 2026-04-25 18:55 | 53.70920 | 9.92479 | 6052 ft | 180 kts | 311° |
| 2026-04-25 18:55 | 53.71463 | 9.90554 | 7071 ft | 194 kts | 287° |
| 2026-04-25 18:55 | 53.71335 | 9.88218 | 8059 ft | 223 kts | 264° |
| 2026-04-25 18:56 | 53.70830 | 9.85485 | 8570 ft | 259 kts | 261° |
| 2026-04-25 18:56 | 53.70252 | 9.82599 | 8953 ft | 262 kts | 261° |
| 2026-04-25 18:56 | 53.69665 | 9.79715 | 9310 ft | 259 kts | 261° |
| 2026-04-25 18:56 | 53.69083 | 9.76843 | 9696 ft | 259 kts | 261° |
| 2026-04-25 18:57 | 53.68502 | 9.73937 | 10054 ft | 269 kts | 261° |
| 2026-04-25 18:57 | 53.67858 | 9.70745 | 10704 ft | 303 kts | 256° |
| 2026-04-25 18:57 | 53.66849 | 9.67599 | 11967 ft | 317 kts | 249° |
| 2026-04-25 18:57 | 53.66476 | 9.66556 | 12386 ft | 319 kts | 249° |
| 2026-04-25 18:58 | 53.64554 | 9.61175 | 14367 ft | 327 kts | 249° |
| 2026-04-25 18:58 | 53.62188 | 9.54549 | 16471 ft | 340 kts | 249° |
| 2026-04-25 18:58 | 53.60969 | 9.51143 | 17489 ft | 345 kts | 249° |
| 2026-04-25 18:59 | 53.58483 | 9.44205 | 19337 ft | 355 kts | 249° |
| 2026-04-25 18:59 | 53.55889 | 9.36982 | 21029 ft | 366 kts | 249° |
| 2026-04-25 19:00 | 53.53226 | 9.29583 | 22537 ft | 379 kts | 248° |
| 2026-04-25 19:00 | 53.51852 | 9.25770 | 23114 ft | 388 kts | 248° |
| 2026-04-25 19:01 | 53.48995 | 9.17863 | 24044 ft | 401 kts | 247° |
| 2026-04-25 19:01 | 53.47565 | 9.13927 | 24899 ft | 401 kts | 247° |
| 2026-04-25 19:01 | 53.46103 | 9.09909 | 25783 ft | 401 kts | 247° |
| 2026-04-25 19:01 | 53.44657 | 9.05935 | 26556 ft | 403 kts | 247° |
| 2026-04-25 19:02 | 53.41655 | 8.97698 | 27873 ft | 411 kts | 246° |
| 2026-04-25 19:02 | 53.40156 | 8.93594 | 28467 ft | 415 kts | 246° |
| 2026-04-25 19:02 | 53.38607 | 8.89360 | 29016 ft | 419 kts | 246° |
| 2026-04-25 19:03 | 53.36550 | 8.83751 | 29764 ft | 423 kts | 246° |
| 2026-04-25 19:03 | 53.33938 | 8.76641 | 30510 ft | 431 kts | 246° |
| 2026-04-25 19:03 | 53.32362 | 8.72360 | 31001 ft | 434 kts | 246° |
| 2026-04-25 19:04 | 53.29422 | 8.63588 | 31856 ft | 430 kts | 256° |
| 2026-04-25 19:04 | 53.28393 | 8.58885 | 32226 ft | 432 kts | 257° |
| 2026-04-25 19:05 | 53.26347 | 8.49446 | 32962 ft | 435 kts | 258° |
| 2026-04-25 19:05 | 53.24526 | 8.39818 | 33846 ft | 433 kts | 259° |
| 2026-04-25 19:05 | 53.23629 | 8.35048 | 34314 ft | 432 kts | 259° |
| 2026-04-25 19:06 | 53.22713 | 8.30196 | 34774 ft | 431 kts | 258° |
| 2026-04-25 19:06 | 53.20914 | 8.20707 | 35729 ft | 429 kts | 258° |
| 2026-04-25 19:06 | 53.20024 | 8.16030 | 36176 ft | 427 kts | 258° |
| 2026-04-25 19:07 | 53.18234 | 8.06583 | 36994 ft | 426 kts | 258° |
| 2026-04-25 19:07 | 53.17353 | 8.01905 | 37327 ft | 426 kts | 258° |
| 2026-04-25 19:08 | 53.15587 | 7.92559 | 37949 ft | 426 kts | 258° |
| 2026-04-25 19:08 | 53.14688 | 7.87821 | 38172 ft | 429 kts | 258° |
| 2026-04-25 19:09 | 53.11933 | 7.73356 | 38167 ft | 444 kts | 258° |
| 2026-04-25 19:09 | 53.11622 | 7.71732 | 38165 ft | 446 kts | 258° |
| 2026-04-25 19:10 | 53.08137 | 7.53672 | 38175 ft | 451 kts | 257° |
| 2026-04-25 19:10 | 53.06209 | 7.43770 | 38173 ft | 450 kts | 257° |
| 2026-04-25 19:10 | 53.05239 | 7.38802 | 37900 ft | 450 kts | 257° |
| 2026-04-25 19:11 | 53.04279 | 7.33907 | 38137 ft | 447 kts | 256° |
| 2026-04-25 19:11 | 53.02337 | 7.24025 | 38170 ft | 453 kts | 256° |
| 2026-04-25 19:12 | 53.00012 | 7.14245 | 38169 ft | 458 kts | 250° |
| 2026-04-25 19:12 | 52.97479 | 7.04635 | 38176 ft | 458 kts | 250° |
| 2026-04-25 19:13 | 52.94929 | 6.94982 | 38167 ft | 457 kts | 250° |
| 2026-04-25 19:13 | 52.92380 | 6.85364 | 38184 ft | 456 kts | 250° |
| 2026-04-25 19:14 | 52.89830 | 6.75779 | 38185 ft | 455 kts | 250° |
| 2026-04-25 19:14 | 52.87264 | 6.66165 | 38265 ft | 458 kts | 250° |
| 2026-04-25 19:15 | 52.84698 | 6.56589 | 38205 ft | 454 kts | 250° |
| 2026-04-25 19:15 | 52.82153 | 6.47132 | 38192 ft | 454 kts | 250° |
| 2026-04-25 19:16 | 52.79581 | 6.37610 | 38190 ft | 454 kts | 250° |
| 2026-04-25 19:16 | 52.76992 | 6.28061 | 38206 ft | 455 kts | 249° |
| 2026-04-25 19:17 | 52.74399 | 6.18534 | 38211 ft | 455 kts | 249° |
| 2026-04-25 19:17 | 52.71796 | 6.09015 | 38215 ft | 455 kts | 249° |
| 2026-04-25 19:18 | 52.69200 | 5.99557 | 38213 ft | 455 kts | 249° |
| 2026-04-25 19:18 | 52.66590 | 5.90086 | 38220 ft | 455 kts | 249° |
| 2026-04-25 19:19 | 52.63987 | 5.80678 | 38216 ft | 454 kts | 249° |
| 2026-04-25 19:19 | 52.61358 | 5.71216 | 38214 ft | 454 kts | 248° |
| 2026-04-25 19:20 | 52.58738 | 5.61823 | 38208 ft | 454 kts | 249° |
| 2026-04-25 19:20 | 52.56103 | 5.52414 | 38204 ft | 454 kts | 248° |
| 2026-04-25 19:21 | 52.53464 | 5.43034 | 38132 ft | 451 kts | 248° |
| 2026-04-25 19:21 | 52.49486 | 5.28950 | 38104 ft | 456 kts | 248° |
| 2026-04-25 19:22 | 52.48138 | 5.24199 | 38261 ft | 458 kts | 247° |
| 2026-04-25 19:22 | 52.46802 | 5.19499 | 38231 ft | 456 kts | 247° |
| 2026-04-25 19:23 | 52.42809 | 5.05511 | 38214 ft | 453 kts | 247° |
| 2026-04-25 19:23 | 52.40131 | 4.96172 | 38017 ft | 452 kts | 247° |
| 2026-04-25 19:23 | 52.38793 | 4.91522 | 38157 ft | 452 kts | 247° |
| 2026-04-25 19:24 | 52.36092 | 4.82156 | 38206 ft | 456 kts | 247° |
| 2026-04-25 19:25 | 52.30667 | 4.63466 | 38215 ft | 456 kts | 247° |
| 2026-04-25 19:25 | 52.27938 | 4.54119 | 38211 ft | 455 kts | 247° |
| 2026-04-25 19:26 | 52.25211 | 4.44816 | 38210 ft | 455 kts | 246° |
| 2026-04-25 19:26 | 52.22491 | 4.35572 | 38211 ft | 455 kts | 246° |
| 2026-04-25 19:27 | 52.20652 | 4.29343 | 38214 ft | 455 kts | 246° |
| 2026-04-25 19:27 | 52.16990 | 4.16986 | 38217 ft | 455 kts | 246° |
| 2026-04-25 19:28 | 52.14236 | 4.07733 | 38217 ft | 455 kts | 245° |
| 2026-04-25 19:28 | 52.11479 | 3.98507 | 38217 ft | 454 kts | 245° |
| 2026-04-25 19:29 | 52.08722 | 3.89317 | 38218 ft | 454 kts | 245° |
| 2026-04-25 19:29 | 52.05873 | 3.80172 | 38219 ft | 455 kts | 243° |
| 2026-04-25 19:30 | 52.02897 | 3.71140 | 38224 ft | 455 kts | 244° |
| 2026-04-25 19:30 | 51.99929 | 3.62160 | 38228 ft | 455 kts | 243° |
| 2026-04-25 19:31 | 51.96938 | 3.53143 | 38223 ft | 455 kts | 243° |
| 2026-04-25 19:31 | 51.93948 | 3.44162 | 38229 ft | 455 kts | 243° |
| 2026-04-25 19:32 | 51.90937 | 3.35149 | 38228 ft | 455 kts | 243° |
| 2026-04-25 19:32 | 51.88923 | 3.29136 | 38229 ft | 455 kts | 243° |
| 2026-04-25 19:33 | 51.85357 | 3.16862 | 38229 ft | 453 kts | 254° |
| 2026-04-25 19:33 | 51.84247 | 3.06870 | 38228 ft | 451 kts | 265° |
| 2026-04-25 19:34 | 51.83591 | 2.96812 | 38231 ft | 451 kts | 265° |
| 2026-04-25 19:34 | 51.82923 | 2.86748 | 38229 ft | 451 kts | 265° |
| 2026-04-25 19:35 | 51.82249 | 2.76702 | 38228 ft | 451 kts | 265° |
| 2026-04-25 19:35 | 51.81570 | 2.66710 | 37644 ft | 452 kts | 265° |
| 2026-04-25 19:36 | 51.81222 | 2.61657 | 37080 ft | 447 kts | 265° |
| 2026-04-25 19:36 | 51.80880 | 2.56718 | 36559 ft | 445 kts | 265° |
| 2026-04-25 19:36 | 51.80535 | 2.51763 | 36017 ft | 445 kts | 265° |
| 2026-04-25 19:36 | 51.80189 | 2.46835 | 35403 ft | 445 kts | 265° |
| 2026-04-25 19:37 | 51.79844 | 2.41941 | 34828 ft | 445 kts | 265° |
| 2026-04-25 19:37 | 51.79493 | 2.36984 | 34202 ft | 445 kts | 265° |
| 2026-04-25 19:37 | 51.79137 | 2.32003 | 33643 ft | 447 kts | 264° |
| 2026-04-25 19:37 | 51.78778 | 2.26998 | 33042 ft | 448 kts | 264° |
| 2026-04-25 19:38 | 51.78422 | 2.22011 | 32446 ft | 450 kts | 264° |
| 2026-04-25 19:38 | 51.78119 | 2.16996 | 31841 ft | 452 kts | 265° |
| 2026-04-25 19:38 | 51.77826 | 2.11956 | 31231 ft | 454 kts | 265° |
| 2026-04-25 19:38 | 51.77530 | 2.06904 | 30622 ft | 455 kts | 265° |
| 2026-04-25 19:39 | 51.77229 | 2.01817 | 30020 ft | 453 kts | 265° |
| 2026-04-25 19:39 | 51.76933 | 1.96850 | 29431 ft | 449 kts | 265° |
| 2026-04-25 19:39 | 51.76631 | 1.91833 | 28837 ft | 445 kts | 265° |
| 2026-04-25 19:39 | 51.76333 | 1.86913 | 28252 ft | 441 kts | 265° |
| 2026-04-25 19:40 | 51.76037 | 1.82071 | 27678 ft | 436 kts | 265° |
| 2026-04-25 19:40 | 51.75740 | 1.77245 | 27103 ft | 432 kts | 265° |
| 2026-04-25 19:40 | 51.75444 | 1.72457 | 26536 ft | 428 kts | 265° |
| 2026-04-25 19:40 | 51.75149 | 1.67722 | 25972 ft | 424 kts | 265° |
| 2026-04-25 19:41 | 51.74852 | 1.63000 | 25410 ft | 421 kts | 265° |
| 2026-04-25 19:41 | 51.74559 | 1.58360 | 24870 ft | 417 kts | 265° |
| 2026-04-25 19:41 | 51.74263 | 1.53705 | 24522 ft | 411 kts | 265° |
| 2026-04-25 19:41 | 51.74166 | 1.52188 | 24455 ft | 411 kts | 265° |
| 2026-04-25 19:42 | 51.73677 | 1.44560 | 24056 ft | 411 kts | 265° |
| 2026-04-25 19:42 | 51.73381 | 1.39991 | 23809 ft | 410 kts | 265° |
| 2026-04-25 19:42 | 51.73086 | 1.35468 | 23563 ft | 408 kts | 265° |
| 2026-04-25 19:42 | 51.72790 | 1.30954 | 23316 ft | 407 kts | 265° |
| 2026-04-25 19:43 | 51.72488 | 1.26373 | 23064 ft | 405 kts | 265° |
| 2026-04-25 19:43 | 51.72191 | 1.21906 | 22817 ft | 404 kts | 265° |
| 2026-04-25 19:43 | 51.71891 | 1.17411 | 22567 ft | 402 kts | 265° |
| 2026-04-25 19:43 | 51.71591 | 1.12933 | 22319 ft | 401 kts | 265° |
| 2026-04-25 19:44 | 51.71289 | 1.08457 | 22066 ft | 399 kts | 265° |
| 2026-04-25 19:44 | 51.70991 | 1.04080 | 21821 ft | 398 kts | 265° |
| 2026-04-25 19:44 | 51.70687 | 0.99621 | 21569 ft | 396 kts | 265° |
| 2026-04-25 19:44 | 51.70386 | 0.95241 | 21317 ft | 395 kts | 265° |
| 2026-04-25 19:45 | 51.70084 | 0.90869 | 21214 ft | 394 kts | 265° |
| 2026-04-25 19:45 | 51.69781 | 0.86513 | 21208 ft | 394 kts | 265° |
| 2026-04-25 19:45 | 51.69476 | 0.82140 | 21221 ft | 394 kts | 265° |
| 2026-04-25 19:45 | 51.69169 | 0.77757 | 21222 ft | 394 kts | 265° |
| 2026-04-25 19:46 | 51.68859 | 0.73375 | 21213 ft | 394 kts | 265° |
| 2026-04-25 19:46 | 51.68549 | 0.69002 | 21215 ft | 394 kts | 265° |
| 2026-04-25 19:46 | 51.68237 | 0.64626 | 21214 ft | 394 kts | 265° |
| 2026-04-25 19:46 | 51.67920 | 0.60214 | 21214 ft | 394 kts | 265° |
| 2026-04-25 19:47 | 51.67609 | 0.55898 | 21214 ft | 394 kts | 265° |
| 2026-04-25 19:47 | 51.67291 | 0.51510 | 21213 ft | 394 kts | 265° |
| 2026-04-25 19:47 | 51.66974 | 0.47156 | 21211 ft | 393 kts | 265° |
| 2026-04-25 19:47 | 51.66650 | 0.42739 | 21228 ft | 394 kts | 265° |
| 2026-04-25 19:48 | 51.66333 | 0.38422 | 21212 ft | 394 kts | 265° |
| 2026-04-25 19:48 | 51.66007 | 0.34020 | 21011 ft | 394 kts | 264° |
| 2026-04-25 19:48 | 51.65681 | 0.29642 | 20752 ft | 393 kts | 264° |
| 2026-04-25 19:48 | 51.65356 | 0.25301 | 20541 ft | 391 kts | 264° |
| 2026-04-25 19:49 | 51.65028 | 0.20943 | 20263 ft | 389 kts | 264° |
| 2026-04-25 19:49 | 51.64920 | 0.19514 | 20189 ft | 388 kts | 264° |
| 2026-04-25 19:49 | 51.64299 | 0.12405 | 19764 ft | 387 kts | 262° |
| 2026-04-25 19:49 | 51.63844 | 0.08164 | 19530 ft | 386 kts | 262° |
| 2026-04-25 19:50 | 51.62933 | -0.00324 | 19032 ft | 383 kts | 262° |
| 2026-04-25 19:50 | 51.62479 | -0.04528 | 18778 ft | 382 kts | 262° |
| 2026-04-25 19:50 | 51.62023 | -0.08738 | 18529 ft | 380 kts | 262° |
| 2026-04-25 19:51 | 51.61615 | -0.12888 | 18279 ft | 378 kts | 264° |
| 2026-04-25 19:51 | 51.61271 | -0.17069 | 18033 ft | 377 kts | 264° |
| 2026-04-25 19:51 | 51.60929 | -0.21221 | 17781 ft | 375 kts | 264° |
| 2026-04-25 19:51 | 51.60587 | -0.25361 | 17533 ft | 374 kts | 264° |
| 2026-04-25 19:52 | 51.60242 | -0.29516 | 17284 ft | 373 kts | 264° |
| 2026-04-25 19:52 | 51.59898 | -0.33632 | 17034 ft | 373 kts | 264° |
| 2026-04-25 19:52 | 51.59553 | -0.37756 | 16794 ft | 372 kts | 264° |
| 2026-04-25 19:52 | 51.59208 | -0.41867 | 16541 ft | 370 kts | 264° |
| 2026-04-25 19:53 | 51.58864 | -0.45942 | 16292 ft | 369 kts | 264° |
| 2026-04-25 19:53 | 51.58520 | -0.49998 | 16041 ft | 363 kts | 264° |
| 2026-04-25 19:53 | 51.58181 | -0.53977 | 15409 ft | 358 kts | 264° |
| 2026-04-25 19:53 | 51.57842 | -0.57942 | 14566 ft | 358 kts | 264° |
| 2026-04-25 19:54 | 51.57507 | -0.61851 | 13766 ft | 358 kts | 264° |
| 2026-04-25 19:54 | 51.57171 | -0.65751 | 13258 ft | 347 kts | 263° |
| 2026-04-25 19:54 | 51.56839 | -0.69600 | 12879 ft | 350 kts | 263° |
| 2026-04-25 19:54 | 51.56728 | -0.70887 | 12753 ft | 352 kts | 263° |
| 2026-04-25 19:55 | 51.56161 | -0.77416 | 12115 ft | 352 kts | 263° |
| 2026-04-25 19:55 | 51.55824 | -0.81283 | 11822 ft | 347 kts | 263° |
| 2026-04-25 19:55 | 51.55476 | -0.85078 | 11410 ft | 339 kts | 260° |
| 2026-04-25 19:55 | 51.54627 | -0.88505 | 11027 ft | 330 kts | 236° |
| 2026-04-25 19:56 | 51.52985 | -0.90968 | 10740 ft | 318 kts | 213° |
| 2026-04-25 19:56 | 51.51116 | -0.92769 | 10476 ft | 307 kts | 211° |
| 2026-04-25 19:56 | 51.49279 | -0.94483 | 10273 ft | 303 kts | 211° |
| 2026-04-25 19:56 | 51.47485 | -0.96153 | 10231 ft | 294 kts | 211° |
| 2026-04-25 19:57 | 51.45732 | -0.97783 | 10243 ft | 288 kts | 211° |
| 2026-04-25 19:57 | 51.44034 | -0.99356 | 10237 ft | 272 kts | 211° |
| 2026-04-25 19:57 | 51.42446 | -1.00819 | 10202 ft | 258 kts | 211° |
| 2026-04-25 19:57 | 51.40901 | -1.02245 | 10202 ft | 258 kts | 211° |
| 2026-04-25 19:58 | 51.39342 | -1.03683 | 10237 ft | 260 kts | 211° |
| 2026-04-25 19:58 | 51.37771 | -1.05130 | 10220 ft | 259 kts | 211° |
| 2026-04-25 19:58 | 51.36213 | -1.06566 | 10202 ft | 260 kts | 211° |
| 2026-04-25 19:58 | 51.34668 | -1.07994 | 10017 ft | 255 kts | 211° |
| 2026-04-25 19:59 | 51.33123 | -1.09426 | 9598 ft | 257 kts | 211° |
| 2026-04-25 19:59 | 51.31583 | -1.10860 | 9239 ft | 256 kts | 211° |
| 2026-04-25 19:59 | 51.30048 | -1.12292 | 8907 ft | 254 kts | 211° |
| 2026-04-25 19:59 | 51.28529 | -1.13709 | 8604 ft | 253 kts | 211° |
| 2026-04-25 20:00 | 51.27019 | -1.15118 | 8262 ft | 251 kts | 211° |
| 2026-04-25 20:00 | 51.26517 | -1.15586 | 8128 ft | 251 kts | 211° |
| 2026-04-25 20:00 | 51.23839 | -1.17136 | 7514 ft | 249 kts | 175° |
| 2026-04-25 20:00 | 51.22191 | -1.16406 | 7055 ft | 248 kts | 157° |
| 2026-04-25 20:01 | 51.19061 | -1.14277 | 6256 ft | 243 kts | 156° |
| 2026-04-25 20:01 | 51.17530 | -1.13166 | 5857 ft | 240 kts | 147° |
| 2026-04-25 20:01 | 51.16442 | -1.11265 | 5485 ft | 232 kts | 109° |
| 2026-04-25 20:02 | 51.16380 | -1.08827 | 5273 ft | 222 kts | 70° |
| 2026-04-25 20:02 | 51.17270 | -1.06831 | 4817 ft | 225 kts | 44° |
| 2026-04-25 20:02 | 51.18298 | -1.04966 | 4498 ft | 223 kts | 56° |
| 2026-04-25 20:02 | 51.19086 | -1.02873 | 4124 ft | 221 kts | 60° |
| 2026-04-25 20:03 | 51.19827 | -1.00721 | 3801 ft | 217 kts | 61° |
| 2026-04-25 20:03 | 51.20536 | -0.98638 | 3470 ft | 214 kts | 61° |
| 2026-04-25 20:03 | 51.21228 | -0.96587 | 3173 ft | 205 kts | 61° |
| 2026-04-25 20:03 | 51.21886 | -0.94632 | 2842 ft | 196 kts | 61° |
| 2026-04-25 20:04 | 51.22504 | -0.92789 | 2552 ft | 187 kts | 61° |
| 2026-04-25 20:04 | 51.23106 | -0.90997 | 2263 ft | 179 kts | 61° |
| 2026-04-25 20:04 | 51.23674 | -0.89303 | 1965 ft | 163 kts | 62° |
| 2026-04-25 20:04 | 51.24178 | -0.87800 | 1789 ft | 141 kts | 62° |
| 2026-04-25 20:05 | 51.24624 | -0.86466 | 1587 ft | 135 kts | 62° |
| 2026-04-25 20:05 | 51.25059 | -0.85167 | 1334 ft | 131 kts | 62° |
| 2026-04-25 20:05 | 51.25486 | -0.83892 | 1142 ft | 131 kts | 62° |
| 2026-04-25 20:05 | 51.25914 | -0.82612 | 945 ft | 131 kts | 62° |
| 2026-04-25 20:06 | 51.26345 | -0.81326 | 739 ft | 132 kts | 61° |
| 2026-04-25 20:06 | 51.26776 | -0.80051 | 523 ft | 130 kts | 62° |
| 2026-04-25 20:06 | 51.27195 | -0.78790 | 320 ft | 126 kts | 62° |
| 2026-04-25 20:06 | 51.27579 | -0.77634 | 242 ft | 105 kts | 62° |
| 2026-04-25 20:07 | 51.27822 | -0.76903 | 241 ft | 47 kts | 62° |
| 2026-04-25 20:07 | 51.27919 | -0.76612 | 241 ft | 15 kts | 62° |
| 2026-04-25 20:07 | 51.27956 | -0.76526 | 241 ft | 9 kts | 30° |
| 2026-04-25 20:07 | 51.28009 | -0.76550 | 241 ft | 8 kts | 296° |
| 2026-04-25 20:08 | 51.28032 | -0.76660 | 241 ft | 8 kts | 287° |
| 2026-04-25 20:08 | 51.28046 | -0.76729 | 241 ft | 6 kts | 287° |
| 2026-04-25 20:08 | 51.28056 | -0.76779 | 241 ft | 6 kts | 287° |
| 2026-04-25 20:08 | 51.28069 | -0.76848 | 241 ft | 6 kts | 287° |
| 2026-04-25 20:09 | 51.28080 | -0.76904 | 241 ft | 5 kts | 287° |
| 2026-04-25 20:09 | 51.28095 | -0.76979 | 241 ft | 8 kts | 287° |
| 2026-04-25 20:09 | 51.28119 | -0.77097 | 241 ft | 13 kts | 287° |
| 2026-04-25 20:09 | 51.28151 | -0.77260 | 241 ft | 17 kts | 287° |
| 2026-04-25 20:10 | 51.28173 | -0.77372 | 241 ft | 16 kts | 287° |
| 2026-04-25 20:10 | 51.28217 | -0.77539 | 241 ft | 8 kts | 299° |
| 2026-04-25 20:10 | 51.28225 | -0.77620 | 241 ft | 6 kts | 257° |
| 2026-04-25 20:10 | 51.28212 | -0.77684 | 241 ft | 5 kts | 268° |
| 2026-04-25 20:11 | 51.28225 | -0.77731 | 241 ft | 4 kts | 303° |
| 2026-04-25 20:11 | 51.28218 | -0.77758 | 241 ft | 1 kts | 175° |
| 2026-04-25 20:11 | 51.28211 | -0.77749 | 241 ft | 1 kts | 124° |
| 2026-04-25 20:11 | 51.28211 | -0.77748 | 241 ft | 0 kts | 124° |